Time;durP1;ratioP1;P1;durP2;ratioP2;P2;SDS_P1;SDS_P2;PMS_P1;PMS_P2;Temp;Humidity;BMP_temperature;BMP_pressure;BME280_temperature;BME280_humidity;BME280_pressure;Samples;Min_cycle;Max_cycle;Signal;HPM_P1;HPM_P2
2022/10/15 00:00:28;;;;;;;;;;;9.10;99.90;;;;;;5101543;28;20277;-77
2022/10/15 00:02:54;;;;;;;;;;;9.10;99.90;;;;;;5087534;28;20373;-78
2022/10/15 00:05:20;;;;;;;;;;;9.10;99.90;;;;;;5097768;28;19934;-77
2022/10/15 00:07:45;;;;;;;;;;;9.10;99.90;;;;;;5105666;28;20010;-77
2022/10/15 00:10:11;;;;;;;;;;;9.20;99.90;;;;;;5075007;28;20070;-76
2022/10/15 00:12:37;;;;;;;;;;;9.10;99.90;;;;;;5076198;28;20362;-77
2022/10/15 00:15:02;;;;;;;;;;;9.10;99.90;;;;;;5055128;28;21555;-77
2022/10/15 00:17:28;;;;;;;;;;;9.00;99.90;;;;;;5070653;28;19912;-77
2022/10/15 00:19:53;;;;;;;;;;;8.80;99.90;;;;;;5085137;28;19916;-77
2022/10/15 00:22:19;;;;;;;;;;;8.80;99.90;;;;;;5084722;28;20381;-77
2022/10/15 00:24:44;;;;;;;;;;;8.70;99.90;;;;;;5079580;28;20396;-77
2022/10/15 00:27:10;;;;;;;;;;;8.60;99.90;;;;;;5085119;28;19923;-77
2022/10/15 00:29:35;;;;;;;;;;;8.60;99.90;;;;;;5104971;28;19924;-77
2022/10/15 00:32:01;;;;;;;;;;;8.50;99.90;;;;;;5087876;28;19952;-77
2022/10/15 00:34:26;;;;;;;;;;;8.60;99.90;;;;;;5082801;28;19979;-77
2022/10/15 00:36:52;;;;;;;;;;;8.60;99.90;;;;;;5099484;27;19919;-77
2022/10/15 00:39:17;;;;;;;;;;;8.60;99.90;;;;;;5096068;28;19923;-77
2022/10/15 00:41:43;;;;;;;;;;;8.50;99.90;;;;;;5088676;28;19973;-77
2022/10/15 00:44:24;;;;;;;;;;;8.50;99.90;;;;;;5102419;28;19916;-77
2022/10/15 00:46:53;;;;;;;;;;;8.40;99.90;;;;;;5069203;28;20375;-77
2022/10/15 00:49:36;;;;;;;;;;;8.30;99.90;;;;;;5067369;28;19985;-77
2022/10/15 00:52:05;;;;;;;;;;;8.20;99.90;;;;;;5087208;28;20012;-77
2022/10/15 00:54:33;;;;;;;;;;;8.10;99.90;;;;;;5085107;28;19909;-78
2022/10/15 00:56:59;;;;;;;;;;;8.00;99.90;;;;;;5096804;28;20382;-78
2022/10/15 00:59:26;;;;;;;;;;;7.90;99.90;;;;;;5084846;28;19965;-77
2022/10/15 01:01:52;;;;;;;;;;;7.90;99.90;;;;;;5100867;28;20063;-78
2022/10/15 01:04:17;;;;;;;;;;;7.80;99.90;;;;;;5105693;28;20026;-78
2022/10/15 01:06:43;;;;;;;;;;;7.80;99.90;;;;;;5085932;28;19916;-78
2022/10/15 01:09:09;;;;;;;;;;;7.80;99.90;;;;;;5073899;28;19927;-77
2022/10/15 01:11:46;;;;;;;;;;;7.80;99.90;;;;;;5064615;28;20003;-77
2022/10/15 01:14:30;;;;;;;;;;;7.80;99.90;;;;;;5075034;28;20291;-77
2022/10/15 01:17:14;;;;;;;;;;;7.80;99.90;;;;;;5091265;28;19916;-78
2022/10/15 01:19:42;;;;;;;;;;;7.80;99.90;;;;;;5084711;28;20313;-78
2022/10/15 01:22:13;;;;;;;;;;;7.80;99.90;;;;;;5089836;28;20320;-78
2022/10/15 01:24:48;;;;;;;;;;;7.80;99.90;;;;;;5084570;28;20500;-77
2022/10/15 01:27:16;;;;;;;;;;;7.80;99.90;;;;;;5086127;28;19916;-78
2022/10/15 01:29:44;;;;;;;;;;;7.80;99.90;;;;;;5092936;28;19924;-77
2022/10/15 01:32:13;;;;;;;;;;;7.80;99.90;;;;;;5086540;28;19916;-77
2022/10/15 01:34:42;;;;;;;;;;;7.80;99.90;;;;;;5086860;28;19912;-77
2022/10/15 01:37:17;;;;;;;;;;;7.80;99.90;;;;;;5104866;28;20412;-77
2022/10/15 01:39:54;;;;;;;;;;;7.80;99.90;;;;;;5102159;28;19924;-77
2022/10/15 01:42:26;;;;;;;;;;;7.80;99.90;;;;;;5105712;28;19966;-78
2022/10/15 01:44:53;;;;;;;;;;;7.80;99.90;;;;;;5086529;28;19912;-77
2022/10/15 01:47:45;;;;;;;;;;;7.80;99.90;;;;;;5098001;28;19942;-78
2022/10/15 01:50:11;;;;;;;;;;;7.90;99.90;;;;;;5084242;28;20006;-76
2022/10/15 01:52:39;;;;;;;;;;;8.00;99.90;;;;;;5088192;28;20020;-77
2022/10/15 01:55:06;;;;;;;;;;;8.00;99.90;;;;;;5100595;28;19927;-77
2022/10/15 01:57:32;;;;;;;;;;;8.10;99.90;;;;;;5067066;28;19918;-77
2022/10/15 01:59:57;;;;;;;;;;;8.10;99.90;;;;;;5067295;28;19915;-77
2022/10/15 02:02:23;;;;;;;;;;;8.10;99.90;;;;;;5065569;28;20015;-77
2022/10/15 02:04:49;;;;;;;;;;;8.10;99.90;;;;;;5083614;28;19931;-78
2022/10/15 02:07:18;;;;;;;;;;;8.10;99.90;;;;;;5100648;28;19919;-77
2022/10/15 02:10:00;;;;;;;;;;;8.10;99.90;;;;;;5083010;28;19952;-77
2022/10/15 02:12:36;;;;;;;;;;;8.10;99.90;;;;;;5086208;28;20396;-78
2022/10/15 02:15:10;;;;;;;;;;;8.20;99.90;;;;;;5103259;28;19991;-78
2022/10/15 02:17:56;;;;;;;;;;;8.20;99.90;;;;;;5087779;28;19924;-77
2022/10/15 02:20:24;;;;;;;;;;;8.30;99.90;;;;;;5072389;28;19916;-77
2022/10/15 02:23:02;;;;;;;;;;;8.30;99.90;;;;;;5098090;28;20319;-77
2022/10/15 02:25:28;;;;;;;;;;;8.30;99.90;;;;;;5097590;28;19916;-78
2022/10/15 02:27:55;;;;;;;;;;;8.30;99.90;;;;;;5098414;28;19978;-77
2022/10/15 02:30:20;;;;;;;;;;;8.30;99.90;;;;;;5070018;28;19924;-77
2022/10/15 02:32:50;;;;;;;;;;;8.30;99.90;;;;;;5084010;28;19973;-78
2022/10/15 02:35:15;;;;;;;;;;;8.30;99.90;;;;;;5099013;28;19934;-78
2022/10/15 02:37:43;;;;;;;;;;;8.30;99.90;;;;;;5065253;28;19920;-78
2022/10/15 02:40:09;;;;;;;;;;;8.30;99.90;;;;;;5071351;28;20401;-78
2022/10/15 02:42:35;;;;;;;;;;;8.30;99.90;;;;;;5076263;28;19920;-78
2022/10/15 02:45:00;;;;;;;;;;;8.20;99.90;;;;;;5066141;28;20332;-78
2022/10/15 02:47:26;;;;;;;;;;;8.20;99.90;;;;;;5085494;28;19915;-78
2022/10/15 02:49:51;;;;;;;;;;;8.20;99.90;;;;;;5084006;28;19924;-78
2022/10/15 02:52:17;;;;;;;;;;;8.10;99.90;;;;;;5065989;28;20440;-77
2022/10/15 02:54:42;;;;;;;;;;;8.10;99.90;;;;;;5085121;28;19912;-78
2022/10/15 02:57:07;;;;;;;;;;;8.10;99.90;;;;;;5097870;28;19960;-78
2022/10/15 02:59:33;;;;;;;;;;;8.20;99.90;;;;;;5104877;28;19918;-78
2022/10/15 03:01:58;;;;;;;;;;;8.20;99.90;;;;;;5103785;28;20346;-78
2022/10/15 03:04:24;;;;;;;;;;;8.20;99.90;;;;;;5103713;28;19920;-78
2022/10/15 03:06:49;;;;;;;;;;;8.20;99.90;;;;;;5084198;28;20420;-77
2022/10/15 03:09:15;;;;;;;;;;;8.30;99.90;;;;;;5096005;28;19920;-78
2022/10/15 03:11:40;;;;;;;;;;;8.30;99.90;;;;;;5081057;28;19923;-78
2022/10/15 03:14:06;;;;;;;;;;;8.30;99.90;;;;;;5063372;28;19909;-78
2022/10/15 03:16:32;;;;;;;;;;;8.40;99.90;;;;;;5071352;28;19924;-78
2022/10/15 03:18:57;;;;;;;;;;;8.40;99.90;;;;;;5083316;28;19912;-78
2022/10/15 03:21:23;;;;;;;;;;;8.50;99.90;;;;;;5098649;28;19923;-78
2022/10/15 03:23:48;;;;;;;;;;;8.50;99.90;;;;;;5102640;28;19911;-79
2022/10/15 03:26:14;;;;;;;;;;;8.60;99.90;;;;;;5066488;28;20359;-79
2022/10/15 03:28:39;;;;;;;;;;;8.60;99.90;;;;;;5087231;28;19976;-79
2022/10/15 03:31:05;;;;;;;;;;;8.60;99.90;;;;;;5103358;28;19915;-79
2022/10/15 03:33:30;;;;;;;;;;;8.60;99.90;;;;;;5085831;28;19958;-79
2022/10/15 03:35:56;;;;;;;;;;;8.70;99.90;;;;;;5083926;28;19957;-78
2022/10/15 03:38:22;;;;;;;;;;;8.70;99.90;;;;;;5102333;28;20278;-79
2022/10/15 03:40:47;;;;;;;;;;;8.80;99.90;;;;;;5069170;28;20278;-79
2022/10/15 03:43:13;;;;;;;;;;;8.90;99.90;;;;;;5083020;28;20317;-79
2022/10/15 03:45:38;;;;;;;;;;;8.90;99.90;;;;;;5087781;28;20016;-79
2022/10/15 03:48:04;;;;;;;;;;;9.00;99.90;;;;;;5074358;28;20081;-78
2022/10/15 03:50:30;;;;;;;;;;;9.00;99.90;;;;;;5098880;28;19924;-79
2022/10/15 03:52:55;;;;;;;;;;;9.00;99.90;;;;;;5070746;28;19913;-79
2022/10/15 03:55:21;;;;;;;;;;;9.10;99.90;;;;;;5065059;28;20016;-78
2022/10/15 03:57:46;;;;;;;;;;;9.20;99.90;;;;;;5066732;28;19912;-79
2022/10/15 04:00:12;;;;;;;;;;;9.30;99.90;;;;;;5083394;28;19992;-78
2022/10/15 04:02:38;;;;;;;;;;;9.30;99.90;;;;;;5106293;28;19923;-78
2022/10/15 04:05:04;;;;;;;;;;;9.40;99.90;;;;;;5087781;28;20397;-78
2022/10/15 04:07:29;;;;;;;;;;;9.40;99.90;;;;;;5088517;28;20080;-77
2022/10/15 04:09:55;;;;;;;;;;;9.50;99.90;;;;;;5087648;28;20015;-79
2022/10/15 04:12:20;;;;;;;;;;;9.60;99.90;;;;;;5089338;28;19915;-78
2022/10/15 04:14:46;;;;;;;;;;;9.60;99.90;;;;;;5093713;28;20418;-78
2022/10/15 04:17:11;;;;;;;;;;;9.70;99.90;;;;;;5086658;28;20520;-78
2022/10/15 04:19:37;;;;;;;;;;;9.70;99.90;;;;;;5082875;28;19922;-78
2022/10/15 04:22:02;;;;;;;;;;;9.70;99.90;;;;;;5104550;28;20374;-79
2022/10/15 04:24:28;;;;;;;;;;;9.70;99.90;;;;;;5079533;28;19915;-79
2022/10/15 04:26:53;;;;;;;;;;;9.70;99.90;;;;;;5086352;28;19919;-78
2022/10/15 04:29:19;;;;;;;;;;;9.80;99.90;;;;;;5086933;28;20550;-78
2022/10/15 04:31:45;;;;;;;;;;;9.80;99.90;;;;;;5102351;28;19950;-78
2022/10/15 04:34:10;;;;;;;;;;;9.80;99.90;;;;;;5095296;28;20405;-78
2022/10/15 04:36:36;;;;;;;;;;;9.80;99.90;;;;;;5080981;28;19997;-78
2022/10/15 04:39:02;;;;;;;;;;;9.80;99.90;;;;;;5085653;28;19916;-78
2022/10/15 04:41:29;;;;;;;;;;;9.80;99.90;;;;;;5084924;28;19912;-78
2022/10/15 04:43:55;;;;;;;;;;;9.90;99.90;;;;;;5093570;28;19923;-78
2022/10/15 04:46:21;;;;;;;;;;;9.80;99.90;;;;;;5081338;28;19946;-78
2022/10/15 04:48:47;;;;;;;;;;;9.80;99.90;;;;;;5086365;28;19939;-78
2022/10/15 04:51:17;;;;;;;;;;;9.90;99.90;;;;;;5085810;28;19919;-78
2022/10/15 04:53:43;;;;;;;;;;;9.80;99.90;;;;;;5094100;28;20292;-78
2022/10/15 04:56:14;;;;;;;;;;;9.80;99.90;;;;;;5062915;28;19916;-78
2022/10/15 04:58:40;;;;;;;;;;;9.80;99.90;;;;;;5094028;28;20389;-78
2022/10/15 05:01:07;;;;;;;;;;;9.80;99.90;;;;;;5086669;28;20434;-79
2022/10/15 05:03:34;;;;;;;;;;;9.80;99.90;;;;;;5087253;28;20402;-79
2022/10/15 05:06:03;;;;;;;;;;;9.80;99.90;;;;;;5101150;28;19912;-79
2022/10/15 05:08:30;;;;;;;;;;;9.80;99.90;;;;;;5080797;28;19976;-79
2022/10/15 05:11:02;;;;;;;;;;;9.80;99.90;;;;;;5074977;28;19916;-80
2022/10/15 05:13:28;;;;;;;;;;;9.80;99.90;;;;;;5079037;28;20417;-79
2022/10/15 05:15:54;;;;;;;;;;;9.90;99.90;;;;;;5074296;28;20003;-80
2022/10/15 05:18:19;;;;;;;;;;;10.00;99.90;;;;;;5046488;28;19916;-80
2022/10/15 05:20:45;;;;;;;;;;;10.00;99.90;;;;;;5066153;28;19981;-80
2022/10/15 05:23:10;;;;;;;;;;;10.10;99.90;;;;;;5085762;28;20371;-80
2022/10/15 05:25:36;;;;;;;;;;;10.10;99.90;;;;;;5100785;27;19938;-80
2022/10/15 05:28:01;;;;;;;;;;;10.20;99.90;;;;;;5084655;28;19970;-80
2022/10/15 05:30:27;;;;;;;;;;;10.20;99.90;;;;;;5104897;28;19927;-80
2022/10/15 05:32:53;;;;;;;;;;;10.20;99.90;;;;;;5063753;28;19917;-80
2022/10/15 05:35:19;;;;;;;;;;;10.20;99.90;;;;;;5086744;28;19918;-80
2022/10/15 05:37:44;;;;;;;;;;;10.30;99.90;;;;;;5082464;28;20275;-80
2022/10/15 05:40:10;;;;;;;;;;;10.30;99.90;;;;;;5074532;28;19916;-79
2022/10/15 05:42:36;;;;;;;;;;;10.20;99.90;;;;;;5087106;28;19915;-79
2022/10/15 05:45:02;;;;;;;;;;;10.20;99.90;;;;;;5082436;28;19973;-79
2022/10/15 05:47:27;;;;;;;;;;;10.30;99.90;;;;;;5104302;28;20290;-79
2022/10/15 05:49:53;;;;;;;;;;;10.20;99.90;;;;;;5085326;28;19923;-79
2022/10/15 05:52:19;;;;;;;;;;;10.30;99.90;;;;;;5098782;28;19911;-79
2022/10/15 05:54:44;;;;;;;;;;;10.30;99.90;;;;;;5065705;28;20049;-79
2022/10/15 05:57:09;;;;;;;;;;;10.30;99.90;;;;;;5063774;28;20011;-79
2022/10/15 05:59:35;;;;;;;;;;;10.30;99.90;;;;;;5081297;28;19919;-79
2022/10/15 06:02:01;;;;;;;;;;;10.30;99.90;;;;;;5083358;28;19924;-79
2022/10/15 06:04:27;;;;;;;;;;;10.30;99.90;;;;;;5100201;28;19916;-79
2022/10/15 06:06:52;;;;;;;;;;;10.40;99.90;;;;;;5081692;28;19912;-80
2022/10/15 06:09:18;;;;;;;;;;;10.40;99.90;;;;;;5092704;28;19931;-79
2022/10/15 06:11:43;;;;;;;;;;;10.40;99.90;;;;;;5092691;27;19916;-79
2022/10/15 06:14:09;;;;;;;;;;;10.40;99.90;;;;;;5065824;28;20413;-79
2022/10/15 06:16:34;;;;;;;;;;;10.40;99.90;;;;;;5088515;28;19939;-79
2022/10/15 06:19:00;;;;;;;;;;;10.40;99.90;;;;;;5094691;28;20374;-79
2022/10/15 06:21:26;;;;;;;;;;;10.50;99.90;;;;;;5089134;28;19953;-79
2022/10/15 06:23:51;;;;;;;;;;;10.40;99.90;;;;;;5065799;28;19912;-79
2022/10/15 06:26:17;;;;;;;;;;;10.40;99.90;;;;;;5084099;28;20054;-80
2022/10/15 06:28:42;;;;;;;;;;;10.40;99.90;;;;;;5071512;28;20428;-79
2022/10/15 06:31:08;;;;;;;;;;;10.30;99.90;;;;;;5073590;28;19916;-80
2022/10/15 06:33:34;;;;;;;;;;;10.30;99.90;;;;;;5064240;28;19916;-79
2022/10/15 06:36:04;;;;;;;;;;;10.30;99.90;;;;;;5066744;28;20019;-80
2022/10/15 06:38:29;;;;;;;;;;;10.40;99.90;;;;;;5065707;28;19916;-79
2022/10/15 06:40:55;;;;;;;;;;;10.40;99.90;;;;;;5059680;28;19920;-80
2022/10/15 06:43:20;;;;;;;;;;;10.60;99.90;;;;;;5060736;28;19927;-80
2022/10/15 06:45:46;;;;;;;;;;;10.60;99.90;;;;;;5055770;28;20322;-80
2022/10/15 06:48:11;;;;;;;;;;;10.60;99.90;;;;;;5077573;28;20039;-80
2022/10/15 06:50:37;;;;;;;;;;;10.50;99.90;;;;;;5059218;28;20275;-79
2022/10/15 06:53:03;;;;;;;;;;;10.50;99.90;;;;;;5100885;28;19968;-80
2022/10/15 06:55:29;;;;;;;;;;;10.50;99.90;;;;;;5076655;28;19923;-80
2022/10/15 06:57:55;;;;;;;;;;;10.40;99.90;;;;;;5061319;28;20080;-79
2022/10/15 07:00:21;;;;;;;;;;;10.40;99.90;;;;;;5077737;28;19981;-80
2022/10/15 07:02:46;;;;;;;;;;;10.40;99.90;;;;;;5083473;28;19924;-79
2022/10/15 07:05:12;;;;;;;;;;;10.40;99.90;;;;;;5083302;28;19923;-79
2022/10/15 07:07:37;;;;;;;;;;;10.40;99.90;;;;;;5096368;28;19919;-79
2022/10/15 07:10:03;;;;;;;;;;;10.40;99.90;;;;;;5092694;28;19942;-79
2022/10/15 07:12:29;;;;;;;;;;;10.40;99.90;;;;;;5073804;28;19995;-79
2022/10/15 07:14:54;;;;;;;;;;;10.50;99.90;;;;;;5062267;28;19912;-79
2022/10/15 07:17:20;;;;;;;;;;;10.60;99.90;;;;;;5055992;28;19923;-79
2022/10/15 07:19:45;;;;;;;;;;;10.70;99.90;;;;;;5082427;28;20432;-79
2022/10/15 07:22:11;;;;;;;;;;;10.90;99.90;;;;;;5093340;28;19924;-79
2022/10/15 07:24:36;;;;;;;;;;;11.00;99.90;;;;;;5098380;28;19941;-79
2022/10/15 07:27:02;;;;;;;;;;;11.00;99.90;;;;;;5083287;28;20031;-79
2022/10/15 07:29:27;;;;;;;;;;;11.10;99.90;;;;;;5074492;28;20133;-80
2022/10/15 07:31:53;;;;;;;;;;;11.10;99.90;;;;;;5065749;28;20423;-79
2022/10/15 07:34:19;;;;;;;;;;;11.10;99.90;;;;;;5080631;28;19915;-79
2022/10/15 07:36:44;;;;;;;;;;;11.20;99.90;;;;;;5066655;28;20014;-79
2022/10/15 07:39:10;;;;;;;;;;;11.30;99.90;;;;;;5087879;28;19914;-79
2022/10/15 07:41:35;;;;;;;;;;;11.50;99.90;;;;;;5094369;28;19915;-79
2022/10/15 07:44:01;;;;;;;;;;;11.70;99.90;;;;;;5086081;28;20078;-79
2022/10/15 07:46:26;;;;;;;;;;;12.00;99.90;;;;;;5085019;28;19926;-79
2022/10/15 07:48:52;;;;;;;;;;;12.10;99.90;;;;;;5083396;28;19924;-80
2022/10/15 07:51:18;;;;;;;;;;;12.30;99.90;;;;;;5086523;28;20260;-78
2022/10/15 07:53:43;;;;;;;;;;;12.20;99.90;;;;;;5060449;28;19939;-80
2022/10/15 07:56:10;;;;;;;;;;;12.40;99.90;;;;;;5085106;28;20260;-80
2022/10/15 07:58:37;;;;;;;;;;;12.50;99.90;;;;;;5086577;28;19920;-79
2022/10/15 08:01:06;;;;;;;;;;;13.10;99.90;;;;;;5080759;28;19917;-79
2022/10/15 08:03:32;;;;;;;;;;;15.10;99.90;;;;;;5080641;28;20391;-80
2022/10/15 08:06:01;;;;;;;;;;;18.50;99.90;;;;;;5057788;28;20027;-80
2022/10/15 08:08:27;;;;;;;;;;;21.80;99.90;;;;;;5093329;28;20261;-80
2022/10/15 08:10:53;;;;;;;;;;;23.10;92.50;;;;;;5086013;28;19916;-80
2022/10/15 08:13:18;;;;;;;;;;;25.00;84.70;;;;;;5084361;28;20359;-80
2022/10/15 08:15:44;;;;;;;;;;;26.30;76.30;;;;;;5068401;28;19916;-80
2022/10/15 08:18:09;;;;;;;;;;;27.30;70.00;;;;;;5069366;28;20001;-80
2022/10/15 08:20:36;;;;;;;;;;;28.50;67.10;;;;;;5090493;28;20057;-80
2022/10/15 08:23:01;;;;;;;;;;;29.20;62.90;;;;;;5065805;28;20014;-80
2022/10/15 08:25:27;;;;;;;;;;;29.20;60.90;;;;;;5067025;28;20460;-81
2022/10/15 08:27:53;;;;;;;;;;;29.50;59.70;;;;;;5080929;28;19917;-81
2022/10/15 08:30:19;;;;;;;;;;;29.20;57.20;;;;;;5099620;28;19923;-80
2022/10/15 08:32:44;;;;;;;;;;;29.30;55.30;;;;;;5084913;28;20011;-81
2022/10/15 08:35:10;;;;;;;;;;;29.10;55.70;;;;;;5089999;28;20408;-80
2022/10/15 08:37:35;;;;;;;;;;;29.30;56.60;;;;;;5086632;28;20330;-81
2022/10/15 08:40:02;;;;;;;;;;;29.30;54.40;;;;;;5082476;28;20318;-81
2022/10/15 08:42:32;;;;;;;;;;;29.30;56.30;;;;;;5083939;28;20051;-79
2022/10/15 08:45:00;;;;;;;;;;;29.90;55.30;;;;;;5061807;28;19938;-80
2022/10/15 08:47:25;;;;;;;;;;;30.20;54.60;;;;;;5079994;28;21116;-80
2022/10/15 08:49:52;;;;;;;;;;;30.00;53.00;;;;;;5088382;28;20392;-80
2022/10/15 08:52:25;;;;;;;;;;;29.60;53.00;;;;;;5063000;28;20086;-80
2022/10/15 08:54:51;;;;;;;;;;;29.30;53.60;;;;;;5075279;28;19916;-81
2022/10/15 08:57:20;;;;;;;;;;;29.50;54.20;;;;;;5084974;28;19915;-79
2022/10/15 08:59:58;;;;;;;;;;;29.30;54.60;;;;;;5088791;28;19928;-80
2022/10/15 09:02:27;;;;;;;;;;;29.20;54.50;;;;;;5083876;28;19994;-80
2022/10/15 09:05:21;;;;;;;;;;;29.00;55.60;;;;;;5077154;28;19919;-80
2022/10/15 09:08:02;;;;;;;;;;;28.80;54.20;;;;;;5068836;28;19935;-79
2022/10/15 09:10:33;;;;;;;;;;;29.10;54.20;;;;;;5085390;28;20019;-79
2022/10/15 09:13:08;;;;;;;;;;;29.30;53.50;;;;;;5087935;28;19916;-79
2022/10/15 09:15:39;;;;;;;;;;;29.50;54.20;;;;;;5066680;28;20451;-78
2022/10/15 09:18:13;;;;;;;;;;;29.90;50.40;;;;;;5071683;28;19916;-78
2022/10/15 09:20:39;;;;;;;;;;;29.80;51.00;;;;;;5090527;28;19963;-78
2022/10/15 09:23:10;;;;;;;;;;;29.90;51.50;;;;;;5075232;28;19978;-78
2022/10/15 09:25:39;;;;;;;;;;;29.90;52.60;;;;;;5085085;28;20011;-79
2022/10/15 09:28:09;;;;;;;;;;;29.90;52.10;;;;;;5091751;28;19916;-78
2022/10/15 09:30:37;;;;;;;;;;;30.10;54.30;;;;;;5082230;28;19992;-78
2022/10/15 09:33:12;;;;;;;;;;;30.50;50.50;;;;;;5102363;28;20316;-78
2022/10/15 09:35:58;;;;;;;;;;;30.30;52.80;;;;;;5077009;28;19916;-78
2022/10/15 09:38:48;;;;;;;;;;;30.10;50.90;;;;;;5097169;28;19951;-78
2022/10/15 09:41:15;;;;;;;;;;;29.20;54.00;;;;;;5065944;28;20331;-77
2022/10/15 09:43:42;;;;;;;;;;;29.00;54.20;;;;;;5084083;28;19963;-77
2022/10/15 09:46:08;;;;;;;;;;;29.30;55.20;;;;;;5099367;28;20012;-78
2022/10/15 09:48:36;;;;;;;;;;;29.50;52.50;;;;;;5067984;28;19916;-77
2022/10/15 09:51:05;;;;;;;;;;;29.50;52.70;;;;;;5087028;28;19942;-78
2022/10/15 09:53:49;;;;;;;;;;;28.80;51.60;;;;;;5084571;28;19916;-79
2022/10/15 09:56:17;;;;;;;;;;;28.00;54.30;;;;;;5079615;28;19967;-78
2022/10/15 09:58:51;;;;;;;;;;;28.30;55.50;;;;;;5071348;28;19962;-80
2022/10/15 10:01:19;;;;;;;;;;;28.90;52.90;;;;;;5083876;28;20015;-80
2022/10/15 10:03:45;;;;;;;;;;;28.80;53.10;;;;;;5066253;28;19931;-78
2022/10/15 10:06:12;;;;;;;;;;;28.80;51.60;;;;;;5065855;28;20011;-78
2022/10/15 10:08:39;;;;;;;;;;;28.80;50.40;;;;;;5083661;28;20383;-78
2022/10/15 10:11:07;;;;;;;;;;;28.70;53.20;;;;;;5062055;28;20356;-78
2022/10/15 10:13:32;;;;;;;;;;;29.30;52.70;;;;;;5065555;28;19922;-76
2022/10/15 10:16:05;;;;;;;;;;;29.10;51.60;;;;;;5082591;28;20345;-76
2022/10/15 10:18:31;;;;;;;;;;;28.60;51.80;;;;;;5074307;28;19916;-76
2022/10/15 10:21:00;;;;;;;;;;;28.00;51.00;;;;;;5060223;28;20048;-75
2022/10/15 10:23:33;;;;;;;;;;;28.30;50.60;;;;;;5084300;28;19915;-75
2022/10/15 10:26:06;;;;;;;;;;;28.30;50.80;;;;;;5054784;28;19992;-75
2022/10/15 10:28:34;;;;;;;;;;;28.60;50.00;;;;;;5062986;28;20186;-76
2022/10/15 10:31:05;;;;;;;;;;;28.80;52.10;;;;;;5061527;28;20432;-76
2022/10/15 10:33:33;;;;;;;;;;;29.20;50.90;;;;;;5070599;28;19916;-76
2022/10/15 10:35:59;;;;;;;;;;;28.20;49.10;;;;;;5086075;28;19978;-76
2022/10/15 10:38:32;;;;;;;;;;;27.80;50.10;;;;;;5089710;28;19923;-76
2022/10/15 10:41:06;;;;;;;;;;;27.20;52.00;;;;;;5065329;28;19959;-76
2022/10/15 10:43:34;;;;;;;;;;;27.30;51.50;;;;;;5067359;28;19915;-76
2022/10/15 10:46:16;;;;;;;;;;;26.10;55.60;;;;;;5086021;28;19993;-76
2022/10/15 10:48:43;;;;;;;;;;;25.80;56.60;;;;;;5083073;28;19920;-75
2022/10/15 10:51:10;;;;;;;;;;;24.90;58.10;;;;;;5058006;28;20007;-76
2022/10/15 10:53:40;;;;;;;;;;;24.10;57.50;;;;;;5082219;28;19920;-75
2022/10/15 10:56:07;;;;;;;;;;;23.80;63.40;;;;;;5083087;28;19946;-75
2022/10/15 10:58:33;;;;;;;;;;;24.40;62.30;;;;;;5083182;28;20323;-76
2022/10/15 11:00:59;;;;;;;;;;;24.90;60.80;;;;;;5044819;28;20295;-76
2022/10/15 11:03:30;;;;;;;;;;;25.60;58.00;;;;;;5081966;28;19924;-76
2022/10/15 11:06:00;;;;;;;;;;;26.20;59.10;;;;;;5067242;28;19928;-76
2022/10/15 11:08:44;;;;;;;;;;;27.40;53.80;;;;;;5079269;28;20135;-76
2022/10/15 11:11:19;;;;;;;;;;;27.80;53.10;;;;;;5059303;28;20058;-76
2022/10/15 11:14:08;;;;;;;;;;;27.10;53.70;;;;;;5095150;28;20006;-75
2022/10/15 11:16:41;;;;;;;;;;;25.90;56.10;;;;;;5053272;28;19916;-75
2022/10/15 11:19:25;;;;;;;;;;;24.30;61.20;;;;;;5087234;28;20359;-77
2022/10/15 11:22:00;;;;;;;;;;;23.10;63.90;;;;;;5072218;28;19916;-77
2022/10/15 11:24:26;;;;;;;;;;;22.50;67.10;;;;;;5077561;28;19920;-76
2022/10/15 11:27:03;;;;;;;;;;;22.50;68.30;;;;;;5086736;28;19974;-77
2022/10/15 11:29:37;;;;;;;;;;;22.70;69.50;;;;;;5102729;28;19951;-76
2022/10/15 11:32:20;;;;;;;;;;;22.50;70.90;;;;;;5096503;28;19928;-77
2022/10/15 11:34:48;;;;;;;;;;;22.30;69.00;;;;;;5076661;28;19943;-77
2022/10/15 11:37:14;;;;;;;;;;;22.20;75.50;;;;;;5065006;28;19916;-77
2022/10/15 11:39:56;;;;;;;;;;;22.30;72.80;;;;;;5083775;28;19912;-77
2022/10/15 11:42:32;;;;;;;;;;;22.50;71.40;;;;;;5081467;28;20007;-76
2022/10/15 11:45:00;;;;;;;;;;;21.90;69.20;;;;;;5077552;28;20003;-76
2022/10/15 11:47:29;;;;;;;;;;;22.00;70.50;;;;;;5060503;28;19977;-76
2022/10/15 11:50:13;;;;;;;;;;;22.50;72.80;;;;;;5097580;28;19924;-76
2022/10/15 11:52:57;;;;;;;;;;;23.00;70.70;;;;;;5053543;28;19920;-76
2022/10/15 11:55:45;;;;;;;;;;;23.30;69.30;;;;;;5078186;28;19919;-77
2022/10/15 11:58:15;;;;;;;;;;;22.50;68.20;;;;;;5073762;28;19988;-77
2022/10/15 12:00:48;;;;;;;;;;;21.10;76.40;;;;;;5068480;28;19923;-76
2022/10/15 12:03:25;;;;;;;;;;;19.90;91.80;;;;;;5063112;28;20443;-79
2022/10/15 12:05:50;;;;;;;;;;;19.10;99.90;;;;;;5065970;28;19973;-76
2022/10/15 12:08:16;;;;;;;;;;;18.60;99.90;;;;;;5088724;28;20411;-76
2022/10/15 12:11:00;;;;;;;;;;;18.20;97.20;;;;;;5099587;28;19924;-77
2022/10/15 12:13:35;;;;;;;;;;;17.80;98.30;;;;;;5088471;28;19925;-77
2022/10/15 12:16:13;;;;;;;;;;;17.60;99.90;;;;;;5082481;28;19994;-76
2022/10/15 12:18:48;;;;;;;;;;;17.50;97.90;;;;;;5107690;28;19918;-79
2022/10/15 12:21:33;;;;;;;;;;;17.40;99.90;;;;;;5088692;28;19912;-79
2022/10/15 12:23:59;;;;;;;;;;;17.40;99.90;;;;;;5068295;28;20004;-79
2022/10/15 12:26:26;;;;;;;;;;;17.50;99.90;;;;;;5089677;28;19994;-76
2022/10/15 12:28:54;;;;;;;;;;;17.50;99.90;;;;;;5067911;28;19948;-77
2022/10/15 12:31:20;;;;;;;;;;;17.50;99.90;;;;;;5086950;28;19916;-77
2022/10/15 12:33:52;;;;;;;;;;;17.40;99.90;;;;;;5067762;28;19966;-76
2022/10/15 12:36:18;;;;;;;;;;;17.30;99.90;;;;;;5082692;28;19916;-76
2022/10/15 12:39:09;;;;;;;;;;;17.30;99.90;;;;;;5063398;28;19939;-77
2022/10/15 12:41:39;;;;;;;;;;;17.30;99.90;;;;;;5069725;28;19916;-76
2022/10/15 12:44:07;;;;;;;;;;;17.40;99.90;;;;;;5093093;28;20378;-77
2022/10/15 12:46:37;;;;;;;;;;;17.40;99.90;;;;;;5084600;28;19923;-77
2022/10/15 12:49:23;;;;;;;;;;;17.30;99.90;;;;;;5065443;28;19916;-76
2022/10/15 12:51:48;;;;;;;;;;;17.50;99.90;;;;;;5095763;28;19965;-77
2022/10/15 12:54:31;;;;;;;;;;;17.80;99.80;;;;;;5086952;28;20337;-76
2022/10/15 12:56:57;;;;;;;;;;;18.00;96.50;;;;;;5084087;28;19955;-76
2022/10/15 12:59:41;;;;;;;;;;;18.30;94.80;;;;;;5085466;28;19958;-77
2022/10/15 13:02:26;;;;;;;;;;;18.60;89.00;;;;;;5056486;28;19912;-76
2022/10/15 13:04:52;;;;;;;;;;;19.00;90.80;;;;;;5084742;28;20311;-78
2022/10/15 13:07:17;;;;;;;;;;;19.10;85.00;;;;;;5073006;28;19997;-79
2022/10/15 13:09:43;;;;;;;;;;;18.90;85.30;;;;;;5096042;28;19931;-77
2022/10/15 13:12:18;;;;;;;;;;;18.70;86.10;;;;;;5093436;27;20388;-79
2022/10/15 13:14:49;;;;;;;;;;;18.70;87.50;;;;;;4725682;28;10000391;-79
2022/10/15 13:17:17;;;;;;;;;;;18.60;90.40;;;;;;5081053;28;20064;-79
2022/10/15 13:19:55;;;;;;;;;;;18.50;90.40;;;;;;5070079;28;20460;-77
2022/10/15 13:22:23;;;;;;;;;;;18.40;92.60;;;;;;5082667;28;20037;-76
2022/10/15 13:24:48;;;;;;;;;;;18.30;92.80;;;;;;5088561;28;19920;-77
2022/10/15 13:27:22;;;;;;;;;;;18.30;93.90;;;;;;5087568;28;19936;-76
2022/10/15 13:29:58;;;;;;;;;;;18.20;95.50;;;;;;5080917;28;19951;-79
2022/10/15 13:32:24;;;;;;;;;;;18.00;96.20;;;;;;5092349;28;20401;-79
2022/10/15 13:34:50;;;;;;;;;;;17.90;96.60;;;;;;5067354;28;20402;-79
2022/10/15 13:37:17;;;;;;;;;;;17.90;98.50;;;;;;5084450;28;19978;-79
2022/10/15 13:39:43;;;;;;;;;;;18.10;99.90;;;;;;5084926;28;19916;-79
2022/10/15 13:42:15;;;;;;;;;;;18.40;99.80;;;;;;5093731;28;20011;-77
2022/10/15 13:44:42;;;;;;;;;;;18.50;99.20;;;;;;5063703;28;20227;-77
2022/10/15 13:47:27;;;;;;;;;;;18.60;99.80;;;;;;5097600;28;19916;-76
2022/10/15 13:50:12;;;;;;;;;;;18.70;98.40;;;;;;5053784;28;19956;-79
2022/10/15 13:52:42;;;;;;;;;;;18.70;99.90;;;;;;5095691;28;19926;-79
2022/10/15 13:55:30;;;;;;;;;;;18.70;99.20;;;;;;5088785;28;20422;-79
2022/10/15 13:57:58;;;;;;;;;;;18.50;99.90;;;;;;5083378;28;20374;-79
2022/10/15 14:00:32;;;;;;;;;;;18.30;99.90;;;;;;5083076;28;20395;-79
2022/10/15 14:03:16;;;;;;;;;;;18.20;99.90;;;;;;5066772;28;20379;-80
2022/10/15 14:05:43;;;;;;;;;;;18.20;99.90;;;;;;5066555;28;20354;-79
2022/10/15 14:08:35;;;;;;;;;;;18.40;99.90;;;;;;5085737;28;19916;-79
2022/10/15 14:11:00;;;;;;;;;;;18.60;99.90;;;;;;5086234;28;19924;-77
2022/10/15 14:13:26;;;;;;;;;;;18.60;97.60;;;;;;5082046;28;20020;-78
2022/10/15 14:15:55;;;;;;;;;;;18.40;97.60;;;;;;5080633;28;20479;-79
2022/10/15 14:18:29;;;;;;;;;;;18.20;97.10;;;;;;5078316;28;19916;-79
2022/10/15 14:20:54;;;;;;;;;;;18.00;96.50;;;;;;5062502;28;19916;-79
2022/10/15 14:23:21;;;;;;;;;;;17.80;99.60;;;;;;5076270;28;19916;-80
2022/10/15 14:25:51;;;;;;;;;;;17.70;97.10;;;;;;5051553;28;20053;-79
2022/10/15 14:28:19;;;;;;;;;;;17.60;99.80;;;;;;5071724;28;19924;-79
2022/10/15 14:30:46;;;;;;;;;;;17.60;99.90;;;;;;5073365;28;20022;-79